createdAt,value
2023-04-23T00:00:02.266Z,579.00
2023-04-23T00:01:02.424Z,580.00
2023-04-23T00:02:02.335Z,581.00
2023-04-23T00:03:03.115Z,582.00
2023-04-23T00:04:02.445Z,582.00
2023-04-23T00:05:02.524Z,583.00
2023-04-23T00:06:02.351Z,584.00
2023-04-23T00:07:02.370Z,583.00
2023-04-23T00:08:02.373Z,583.00
2023-04-23T00:09:02.375Z,583.00
2023-04-23T00:10:02.357Z,583.00
2023-04-23T00:11:02.379Z,579.00
2023-04-23T00:12:02.374Z,576.00
2023-04-23T00:13:02.396Z,575.00
2023-04-23T00:14:02.416Z,573.00
2023-04-23T00:15:02.401Z,573.00
2023-04-23T00:16:02.458Z,572.00
2023-04-23T00:17:02.460Z,572.00
2023-04-23T00:18:02.476Z,570.00
2023-04-23T00:19:02.468Z,569.00
2023-04-23T00:20:02.473Z,569.00
2023-04-23T00:21:02.495Z,569.00
2023-04-23T00:22:02.512Z,569.00
2023-04-23T00:23:02.491Z,570.00
2023-04-23T00:24:02.549Z,571.00
2023-04-23T00:25:02.574Z,569.00
2023-04-23T00:26:02.540Z,569.00
2023-04-23T00:27:02.558Z,570.00
2023-04-23T00:28:02.582Z,570.00
2023-04-23T00:29:02.603Z,569.00
2023-04-23T00:30:02.615Z,570.00
2023-04-23T00:31:02.659Z,570.00
2023-04-23T00:32:02.740Z,570.00
2023-04-23T00:33:02.666Z,573.00
2023-04-23T00:34:02.665Z,573.00
2023-04-23T00:35:02.670Z,573.00
2023-04-23T00:36:02.716Z,573.00
2023-04-23T00:37:02.709Z,572.00
2023-04-23T00:38:02.730Z,571.00
2023-04-23T00:39:02.740Z,572.00
2023-04-23T00:40:02.761Z,573.00
2023-04-23T00:41:02.777Z,574.00
2023-04-23T00:42:02.775Z,573.00
2023-04-23T00:43:02.825Z,576.00
2023-04-23T00:44:02.798Z,574.00
2023-04-23T00:45:02.814Z,573.00
2023-04-23T00:46:02.922Z,571.00
2023-04-23T00:47:02.868Z,572.00
2023-04-23T00:48:02.891Z,572.00
2023-04-23T00:49:02.929Z,571.00
2023-04-23T00:50:02.901Z,572.00
2023-04-23T00:51:02.901Z,573.00
2023-04-23T00:52:02.893Z,573.00
2023-04-23T00:53:02.935Z,574.00
2023-04-23T00:54:02.972Z,573.00
2023-04-23T00:55:02.973Z,571.00
2023-04-23T00:56:02.998Z,571.00
2023-04-23T00:57:03.034Z,571.00
2023-04-23T00:58:02.992Z,571.00
2023-04-23T00:59:03.031Z,571.00
2023-04-23T01:00:03.056Z,570.00
2023-04-23T01:01:03.058Z,569.00
2023-04-23T01:02:03.115Z,568.00
2023-04-23T01:03:03.179Z,572.00
2023-04-23T01:04:03.305Z,572.00
2023-04-23T01:05:03.124Z,574.00
2023-04-23T01:06:03.144Z,571.00
2023-04-23T01:07:03.149Z,571.00
2023-04-23T01:08:03.217Z,571.00
2023-04-23T01:09:03.191Z,570.00
2023-04-23T01:10:03.212Z,569.00
2023-04-23T01:11:03.249Z,568.00
2023-04-23T01:12:03.254Z,571.00
2023-04-23T01:13:03.252Z,572.00
2023-04-23T01:14:03.279Z,571.00
2023-04-23T01:15:03.281Z,569.00
2023-04-23T01:16:03.294Z,570.00
2023-04-23T01:17:03.392Z,571.00
2023-04-23T01:18:03.367Z,570.00
2023-04-23T01:19:03.362Z,568.00
2023-04-23T01:20:03.411Z,571.00
2023-04-23T01:21:03.407Z,572.00
2023-04-23T01:22:03.432Z,572.00
2023-04-23T01:23:03.404Z,570.00
2023-04-23T01:24:03.464Z,569.00
2023-04-23T01:25:03.455Z,567.00
2023-04-23T01:26:03.500Z,569.00
2023-04-23T01:27:03.493Z,572.00
2023-04-23T01:28:03.488Z,574.00
2023-04-23T01:29:03.530Z,573.00
2023-04-23T01:30:03.503Z,571.00
2023-04-23T01:31:03.558Z,573.00
2023-04-23T01:32:03.526Z,575.00
2023-04-23T01:33:03.587Z,577.00
2023-04-23T01:34:03.572Z,577.00
2023-04-23T01:35:03.559Z,576.00
2023-04-23T01:36:03.591Z,578.00
2023-04-23T01:37:03.608Z,579.00
2023-04-23T01:38:03.664Z,577.00
2023-04-23T01:39:03.648Z,576.00
2023-04-23T01:40:03.656Z,575.00
2023-04-23T01:41:03.677Z,574.00
2023-04-23T01:42:03.711Z,574.00
2023-04-23T01:43:03.742Z,574.00
2023-04-23T01:44:03.724Z,574.00
2023-04-23T01:45:03.746Z,573.00
2023-04-23T01:46:03.791Z,574.00
2023-04-23T01:47:06.299Z,574.00
2023-04-23T01:48:03.808Z,572.00
2023-04-23T01:49:03.779Z,571.00
2023-04-23T01:50:03.737Z,571.00
2023-04-23T01:51:03.737Z,570.00
2023-04-23T01:52:03.757Z,570.00
2023-04-23T01:53:03.750Z,571.00
2023-04-23T01:54:03.736Z,571.00
2023-04-23T01:55:03.706Z,571.00
2023-04-23T01:56:03.723Z,570.00
2023-04-23T01:57:03.684Z,569.00
2023-04-23T01:58:03.699Z,569.00
2023-04-23T01:59:03.694Z,570.00
2023-04-23T02:00:03.689Z,572.00
2023-04-23T02:01:03.644Z,573.00
2023-04-23T02:02:03.806Z,573.00
2023-04-23T02:03:03.867Z,574.00
2023-04-23T02:04:03.761Z,576.00
2023-04-23T02:05:03.642Z,579.00
2023-04-23T02:06:03.625Z,581.00
2023-04-23T02:07:03.627Z,582.00
2023-04-23T02:08:03.628Z,581.00
2023-04-23T02:09:03.635Z,581.00
2023-04-23T02:10:03.608Z,581.00
2023-04-23T02:11:03.623Z,579.00
2023-04-23T02:12:03.592Z,583.00
2023-04-23T02:13:03.575Z,586.00
2023-04-23T02:14:03.567Z,586.00
2023-04-23T02:15:03.573Z,585.00
2023-04-23T02:16:03.608Z,585.00
2023-04-23T02:17:03.553Z,586.00
2023-04-23T02:18:03.541Z,582.00
2023-04-23T02:19:03.535Z,581.00
2023-04-23T02:20:03.539Z,580.00
2023-04-23T02:21:03.507Z,581.00
2023-04-23T02:22:03.505Z,580.00
2023-04-23T02:23:03.515Z,579.00
2023-04-23T02:24:03.509Z,577.00
2023-04-23T02:25:03.510Z,575.00
2023-04-23T02:26:03.484Z,573.00
2023-04-23T02:27:03.472Z,573.00
2023-04-23T02:28:03.500Z,575.00
2023-04-23T02:29:03.464Z,576.00
2023-04-23T02:30:03.456Z,575.00
2023-04-23T02:31:03.450Z,576.00
2023-04-23T02:32:03.474Z,574.00
2023-04-23T02:33:03.467Z,573.00
2023-04-23T02:34:03.433Z,575.00
2023-04-23T02:35:03.451Z,577.00
2023-04-23T02:36:03.425Z,577.00
2023-04-23T02:37:03.397Z,578.00
2023-04-23T02:38:03.406Z,579.00
2023-04-23T02:39:03.424Z,579.00
2023-04-23T02:40:03.378Z,580.00
2023-04-23T02:41:03.372Z,581.00
2023-04-23T02:42:03.372Z,581.00
2023-04-23T02:43:03.343Z,578.00
2023-04-23T02:44:03.363Z,578.00
2023-04-23T02:45:03.380Z,578.00
2023-04-23T02:46:03.334Z,577.00
2023-04-23T02:47:03.443Z,575.00
2023-04-23T02:48:03.382Z,575.00
2023-04-23T02:49:03.327Z,574.00
2023-04-23T02:50:03.363Z,574.00
2023-04-23T02:51:03.305Z,572.00
2023-04-23T02:52:03.302Z,573.00
2023-04-23T02:53:03.316Z,572.00
2023-04-23T02:54:03.247Z,571.00
2023-04-23T02:55:03.257Z,570.00
2023-04-23T02:56:03.267Z,570.00
2023-04-23T02:57:03.263Z,571.00
2023-04-23T02:58:03.275Z,572.00
2023-04-23T02:59:03.232Z,571.00
2023-04-23T03:00:03.219Z,571.00
2023-04-23T03:01:03.313Z,572.00
2023-04-23T03:02:03.243Z,575.00
2023-04-23T03:03:03.359Z,577.00
2023-04-23T03:04:03.320Z,575.00
2023-04-23T03:05:03.287Z,575.00
2023-04-23T03:06:03.307Z,574.00
2023-04-23T03:07:03.318Z,575.00
2023-04-23T03:08:03.329Z,574.00
2023-04-23T03:09:03.362Z,573.00
2023-04-23T03:10:03.401Z,573.00
2023-04-23T03:11:03.436Z,573.00
2023-04-23T03:12:03.449Z,573.00
2023-04-23T03:13:03.488Z,571.00
2023-04-23T03:14:03.492Z,570.00
2023-04-23T03:15:03.521Z,572.00
2023-04-23T03:16:03.569Z,573.00
2023-04-23T03:17:03.664Z,573.00
2023-04-23T03:18:03.782Z,575.00
2023-04-23T03:19:03.600Z,576.00
2023-04-23T03:20:03.624Z,578.00
2023-04-23T03:21:03.652Z,578.00
2023-04-23T03:22:03.646Z,578.00
2023-04-23T03:23:03.679Z,578.00
2023-04-23T03:24:03.704Z,576.00
2023-04-23T03:25:03.718Z,578.00
2023-04-23T03:26:03.753Z,580.00
2023-04-23T03:27:03.782Z,581.00
2023-04-23T03:28:03.826Z,578.00
2023-04-23T03:29:03.790Z,577.00
2023-04-23T03:30:03.835Z,574.00
2023-04-23T03:31:03.859Z,574.00
2023-04-23T03:32:03.898Z,574.00
2023-04-23T03:33:03.934Z,575.00
2023-04-23T03:34:03.966Z,575.00
2023-04-23T03:35:03.934Z,575.00
2023-04-23T03:36:03.992Z,573.00
2023-04-23T03:37:04.022Z,575.00
2023-04-23T03:38:04.047Z,572.00
2023-04-23T03:39:04.061Z,573.00
2023-04-23T03:40:04.092Z,577.00
2023-04-23T03:41:04.108Z,577.00
2023-04-23T03:42:04.168Z,577.00
2023-04-23T03:43:04.195Z,577.00
2023-04-23T03:44:04.176Z,579.00
2023-04-23T03:45:04.200Z,577.00
2023-04-23T03:46:04.243Z,578.00
2023-04-23T03:47:04.252Z,575.00
2023-04-23T03:48:04.327Z,575.00
2023-04-23T03:49:04.293Z,576.00
2023-04-23T03:50:04.350Z,575.00
2023-04-23T03:51:04.410Z,574.00
2023-04-23T03:52:04.395Z,576.00
2023-04-23T03:53:04.453Z,575.00
2023-04-23T03:54:04.432Z,577.00
2023-04-23T03:55:04.433Z,579.00
2023-04-23T03:56:04.455Z,580.00
2023-04-23T03:57:04.481Z,579.00
2023-04-23T03:58:04.546Z,580.00
2023-04-23T03:59:04.501Z,578.00
2023-04-23T04:00:04.530Z,579.00
2023-04-23T04:01:04.591Z,580.00
2023-04-23T04:02:04.628Z,579.00
2023-04-23T04:03:04.800Z,578.00
2023-04-23T04:04:04.929Z,576.00
2023-04-23T04:05:04.788Z,575.00
2023-04-23T04:06:04.605Z,577.00
2023-04-23T04:07:04.614Z,575.00
2023-04-23T04:08:04.661Z,577.00
2023-04-23T04:09:04.656Z,582.00
2023-04-23T04:10:04.692Z,582.00
2023-04-23T04:11:04.663Z,582.00
2023-04-23T04:12:04.700Z,584.00
2023-04-23T04:13:04.726Z,586.00
2023-04-23T04:14:04.757Z,585.00
2023-04-23T04:15:04.785Z,583.00
2023-04-23T04:16:04.795Z,585.00
2023-04-23T04:17:04.764Z,583.00
2023-04-23T04:18:04.801Z,581.00
2023-04-23T04:19:04.818Z,579.00
2023-04-23T04:20:04.819Z,577.00
2023-04-23T04:21:04.809Z,581.00
2023-04-23T04:22:04.837Z,583.00
2023-04-23T04:23:04.870Z,586.00
2023-04-23T04:24:04.883Z,586.00
2023-04-23T04:25:04.868Z,586.00
2023-04-23T04:26:04.889Z,586.00
2023-04-23T04:27:04.930Z,586.00
2023-04-23T04:28:04.931Z,586.00
2023-04-23T04:29:04.938Z,588.00
2023-04-23T04:30:04.958Z,584.00
2023-04-23T04:31:05.054Z,582.00
2023-04-23T04:32:04.987Z,582.00
2023-04-23T04:33:05.041Z,581.00
2023-04-23T04:34:05.045Z,580.00
2023-04-23T04:35:05.071Z,581.00
2023-04-23T04:36:05.056Z,581.00
2023-04-23T04:37:05.094Z,579.00
2023-04-23T04:38:05.102Z,579.00
2023-04-23T04:39:05.107Z,578.00
2023-04-23T04:40:05.149Z,578.00
2023-04-23T04:41:05.196Z,574.00
2023-04-23T04:42:05.203Z,576.00
2023-04-23T04:43:05.265Z,577.00
2023-04-23T04:44:05.218Z,576.00
2023-04-23T04:45:05.253Z,578.00
2023-04-23T04:46:07.124Z,578.00
2023-04-23T04:47:05.385Z,578.00
2023-04-23T04:48:05.320Z,579.00
2023-04-23T04:49:05.314Z,579.00
2023-04-23T04:50:05.320Z,580.00
2023-04-23T04:51:05.330Z,581.00
2023-04-23T04:52:05.360Z,581.00
2023-04-23T04:53:05.384Z,579.00
2023-04-23T04:54:05.380Z,576.00
2023-04-23T04:55:05.425Z,577.00
2023-04-23T04:56:05.430Z,578.00
2023-04-23T04:57:05.482Z,577.00
2023-04-23T04:58:05.462Z,577.00
2023-04-23T04:59:05.503Z,578.00
2023-04-23T05:00:05.534Z,579.00
2023-04-23T05:01:05.593Z,581.00
2023-04-23T05:02:05.611Z,581.00
2023-04-23T05:03:05.728Z,581.00
2023-04-23T05:04:05.732Z,581.00
2023-04-23T05:05:05.596Z,578.00
2023-04-23T05:06:05.639Z,577.00
2023-04-23T05:07:05.652Z,578.00
2023-04-23T05:08:05.671Z,578.00
2023-04-23T05:09:05.698Z,577.00
2023-04-23T05:10:05.722Z,576.00
2023-04-23T05:11:05.753Z,578.00
2023-04-23T05:12:05.776Z,576.00
2023-04-23T05:13:05.778Z,577.00
2023-04-23T05:14:05.836Z,580.00
2023-04-23T05:15:05.825Z,581.00
2023-04-23T05:16:05.864Z,582.00
2023-04-23T05:17:05.873Z,581.00
2023-04-23T05:18:05.903Z,581.00
2023-04-23T05:19:05.920Z,580.00
2023-04-23T05:20:05.927Z,576.00
2023-04-23T05:21:05.982Z,575.00
2023-04-23T05:22:05.980Z,573.00
2023-04-23T05:23:05.995Z,572.00
2023-04-23T05:24:05.992Z,571.00
2023-04-23T05:25:06.045Z,571.00
2023-04-23T05:26:06.056Z,571.00
2023-04-23T05:27:06.055Z,572.00
2023-04-23T05:28:06.084Z,574.00
2023-04-23T05:29:06.087Z,573.00
2023-04-23T05:30:06.078Z,574.00
2023-04-23T05:31:06.102Z,575.00
2023-04-23T05:32:06.190Z,575.00
2023-04-23T05:33:06.224Z,574.00
2023-04-23T05:34:06.199Z,574.00
2023-04-23T05:35:06.184Z,575.00
2023-04-23T05:36:06.169Z,574.00
2023-04-23T05:37:06.223Z,574.00
2023-04-23T05:38:06.231Z,572.00
2023-04-23T05:39:06.237Z,574.00
2023-04-23T05:40:06.246Z,574.00
2023-04-23T05:41:06.229Z,577.00
2023-04-23T05:42:06.248Z,578.00
2023-04-23T05:43:06.288Z,579.00
2023-04-23T05:44:06.283Z,580.00
2023-04-23T05:45:08.402Z,580.00
2023-04-23T05:46:06.544Z,580.00
2023-04-23T05:47:06.449Z,580.00
2023-04-23T05:48:06.520Z,580.00
2023-04-23T05:49:06.524Z,578.00
2023-04-23T05:50:06.536Z,576.00
2023-04-23T05:51:06.509Z,576.00
2023-04-23T05:52:06.538Z,577.00
2023-04-23T05:53:06.556Z,579.00
2023-04-23T05:54:06.565Z,580.00
2023-04-23T05:55:06.557Z,582.00
2023-04-23T05:56:06.563Z,582.00
2023-04-23T05:57:06.571Z,577.00
2023-04-23T05:58:06.574Z,579.00
2023-04-23T05:59:06.623Z,582.00
2023-04-23T06:00:06.608Z,580.00
2023-04-23T06:01:06.599Z,581.00
2023-04-23T06:02:06.992Z,580.00
2023-04-23T06:03:06.799Z,581.00
2023-04-23T06:04:06.832Z,582.00
2023-04-23T06:05:06.845Z,584.00
2023-04-23T06:06:06.671Z,583.00
2023-04-23T06:07:06.729Z,583.00
2023-04-23T06:08:06.675Z,581.00
2023-04-23T06:09:06.662Z,580.00
2023-04-23T06:10:06.668Z,583.00
2023-04-23T06:11:06.707Z,582.00
2023-04-23T06:12:06.729Z,583.00
2023-04-23T06:13:06.711Z,583.00
2023-04-23T06:14:06.704Z,582.00
2023-04-23T06:15:06.726Z,583.00
2023-04-23T06:16:06.771Z,584.00
2023-04-23T06:17:06.742Z,583.00
2023-04-23T06:18:06.880Z,581.00
2023-04-23T06:19:06.813Z,579.00
2023-04-23T06:20:06.745Z,579.00
2023-04-23T06:21:06.770Z,577.00
2023-04-23T06:22:06.778Z,575.00
2023-04-23T06:23:06.824Z,578.00
2023-04-23T06:24:06.792Z,583.00
2023-04-23T06:25:06.778Z,582.00
2023-04-23T06:26:06.790Z,584.00
2023-04-23T06:27:06.763Z,583.00
2023-04-23T06:28:06.815Z,583.00
2023-04-23T06:29:06.769Z,581.00
2023-04-23T06:30:06.809Z,583.00
2023-04-23T06:31:06.844Z,581.00
2023-04-23T06:32:06.815Z,582.00
2023-04-23T06:33:06.835Z,582.00
2023-04-23T06:34:06.840Z,580.00
2023-04-23T06:35:07.007Z,577.00
2023-04-23T06:36:06.827Z,575.00
2023-04-23T06:37:06.833Z,575.00
2023-04-23T06:38:06.818Z,576.00
2023-04-23T06:39:06.833Z,578.00
2023-04-23T06:40:06.859Z,580.00
2023-04-23T06:41:06.841Z,580.00
2023-04-23T06:42:06.834Z,580.00
2023-04-23T06:43:06.831Z,580.00
2023-04-23T06:44:06.846Z,580.00
2023-04-23T06:45:06.848Z,577.00
2023-04-23T06:46:06.864Z,579.00
2023-04-23T06:47:06.918Z,578.00
2023-04-23T06:48:06.905Z,578.00
2023-04-23T06:49:06.907Z,578.00
2023-04-23T06:50:06.881Z,579.00
2023-04-23T06:51:06.906Z,580.00
2023-04-23T06:52:06.899Z,580.00
2023-04-23T06:53:06.869Z,578.00
2023-04-23T06:54:06.897Z,576.00
2023-04-23T06:55:06.918Z,574.00
2023-04-23T06:56:06.935Z,574.00
2023-04-23T06:57:06.945Z,576.00
2023-04-23T06:58:06.904Z,578.00
2023-04-23T06:59:07.017Z,579.00
2023-04-23T07:00:07.044Z,579.00
2023-04-23T07:01:07.025Z,578.00
2023-04-23T07:02:06.946Z,576.00
2023-04-23T07:03:07.061Z,574.00
2023-04-23T07:04:06.960Z,575.00
2023-04-23T07:05:06.937Z,575.00
2023-04-23T07:06:06.976Z,578.00
2023-04-23T07:07:06.975Z,576.00
2023-04-23T07:08:06.947Z,578.00
2023-04-23T07:09:06.969Z,577.00
2023-04-23T07:10:06.977Z,579.00
2023-04-23T07:11:06.981Z,579.00
2023-04-23T07:12:06.970Z,579.00
2023-04-23T07:13:06.993Z,580.00
2023-04-23T07:14:07.007Z,580.00
2023-04-23T07:15:07.056Z,578.00
2023-04-23T07:16:07.058Z,578.00
2023-04-23T07:17:07.021Z,579.00
2023-04-23T07:18:07.022Z,578.00
2023-04-23T07:19:06.986Z,579.00
2023-04-23T07:20:06.973Z,579.00
2023-04-23T07:21:07.015Z,578.00
2023-04-23T07:22:06.998Z,578.00
2023-04-23T07:23:06.974Z,579.00
2023-04-23T07:24:07.462Z,579.00
2023-04-23T07:25:06.998Z,578.00
2023-04-23T07:26:07.000Z,578.00
2023-04-23T07:27:06.987Z,575.00
2023-04-23T07:28:07.029Z,574.00
2023-04-23T07:29:07.037Z,574.00
2023-04-23T07:30:07.018Z,573.00
2023-04-23T07:31:07.047Z,573.00
2023-04-23T07:32:07.086Z,573.00
2023-04-23T07:33:07.077Z,574.00
2023-04-23T07:34:07.014Z,575.00
2023-04-23T07:35:07.009Z,574.00
2023-04-23T07:36:07.021Z,574.00
2023-04-23T07:37:06.988Z,574.00
2023-04-23T07:38:07.025Z,572.00
2023-04-23T07:39:07.036Z,573.00
2023-04-23T07:40:07.301Z,571.00
2023-04-23T07:41:07.001Z,573.00
2023-04-23T07:42:07.001Z,574.00
2023-04-23T07:43:07.021Z,573.00
2023-04-23T07:44:07.017Z,574.00
2023-04-23T07:45:07.020Z,575.00
2023-04-23T07:46:07.040Z,576.00
2023-04-23T07:47:07.005Z,577.00
2023-04-23T07:48:06.992Z,576.00
2023-04-23T07:49:07.018Z,574.00
2023-04-23T07:50:06.969Z,576.00
2023-04-23T07:51:06.988Z,576.00
2023-04-23T07:52:06.983Z,578.00
2023-04-23T07:53:07.027Z,583.00
2023-04-23T07:54:06.995Z,585.00
2023-04-23T07:55:06.984Z,584.00
2023-04-23T07:56:06.967Z,585.00
2023-04-23T07:57:06.943Z,586.00
2023-04-23T07:58:06.987Z,586.00
2023-04-23T07:59:06.988Z,589.00
2023-04-23T08:00:06.976Z,588.00
2023-04-23T08:01:06.964Z,586.00
2023-04-23T08:02:07.072Z,587.00
2023-04-23T08:03:07.075Z,585.00
2023-04-23T08:04:07.152Z,583.00
2023-04-23T08:05:07.028Z,582.00
2023-04-23T08:06:06.927Z,581.00
2023-04-23T08:07:06.941Z,581.00
2023-04-23T08:08:06.932Z,581.00
2023-04-23T08:09:06.962Z,582.00
2023-04-23T08:10:06.966Z,581.00
2023-04-23T08:11:06.986Z,580.00
2023-04-23T08:12:07.022Z,581.00
2023-04-23T08:13:07.017Z,579.00
2023-04-23T08:14:07.053Z,579.00
2023-04-23T08:15:07.155Z,582.00
2023-04-23T08:16:07.091Z,580.00
2023-04-23T08:17:07.045Z,577.00
2023-04-23T08:18:07.035Z,579.00
2023-04-23T08:19:07.058Z,581.00
2023-04-23T08:20:07.051Z,583.00
2023-04-23T08:21:07.071Z,582.00
2023-04-23T08:22:07.085Z,583.00
2023-04-23T08:23:07.102Z,585.00
2023-04-23T08:24:07.153Z,586.00
2023-04-23T08:25:07.184Z,585.00
2023-04-23T08:26:07.130Z,586.00
2023-04-23T08:27:07.162Z,584.00
2023-04-23T08:28:07.179Z,586.00
2023-04-23T08:29:08.209Z,586.00
2023-04-23T08:30:07.203Z,588.00
2023-04-23T08:31:18.903Z,584.00
2023-04-23T08:32:08.255Z,584.00
2023-04-23T08:33:07.206Z,583.00
2023-04-23T08:34:07.215Z,583.00
2023-04-23T08:35:07.190Z,579.00
2023-04-23T08:36:07.182Z,579.00
2023-04-23T08:37:11.664Z,580.00
2023-04-23T08:38:08.169Z,582.00
2023-04-23T08:39:07.159Z,583.00
2023-04-23T08:40:07.181Z,583.00
2023-04-23T08:41:07.151Z,585.00
2023-04-23T08:42:07.124Z,584.00
2023-04-23T08:43:07.118Z,586.00
2023-04-23T08:44:07.155Z,585.00
2023-04-23T08:45:07.128Z,583.00
2023-04-23T08:46:07.144Z,580.00
2023-04-23T08:47:07.083Z,582.00
2023-04-23T08:48:07.149Z,583.00
2023-04-23T08:49:07.093Z,585.00
2023-04-23T08:50:07.079Z,583.00
2023-04-23T08:51:07.066Z,584.00
2023-04-23T08:52:07.057Z,583.00
2023-04-23T08:53:07.064Z,584.00
2023-04-23T08:54:07.105Z,585.00
2023-04-23T08:55:07.136Z,586.00
2023-04-23T08:56:07.129Z,585.00
2023-04-23T08:57:07.185Z,587.00
2023-04-23T08:58:07.192Z,588.00
2023-04-23T08:59:07.254Z,587.00
2023-04-23T09:00:07.267Z,589.00
2023-04-23T09:01:07.317Z,587.00
2023-04-23T09:02:07.407Z,586.00
2023-04-23T09:03:07.645Z,584.00
2023-04-23T09:04:07.523Z,583.00
2023-04-23T09:05:07.547Z,587.00
2023-04-23T09:06:07.582Z,587.00
2023-04-23T09:07:07.603Z,587.00
2023-04-23T09:08:07.703Z,585.00
2023-04-23T09:09:07.734Z,583.00
2023-04-23T09:10:07.794Z,583.00
2023-04-23T09:11:07.804Z,586.00
2023-04-23T09:12:07.841Z,585.00
2023-04-23T09:13:07.913Z,584.00
2023-04-23T09:14:07.984Z,586.00
2023-04-23T09:15:07.998Z,586.00
2023-04-23T09:16:08.069Z,588.00
2023-04-23T09:17:08.093Z,589.00
2023-04-23T09:18:08.155Z,590.00
2023-04-23T09:19:08.192Z,591.00
2023-04-23T09:20:08.217Z,589.00
2023-04-23T09:21:08.317Z,586.00
2023-04-23T09:22:08.347Z,588.00
2023-04-23T09:23:08.450Z,586.00
2023-04-23T09:24:08.559Z,587.00
2023-04-23T09:25:08.518Z,588.00
2023-04-23T09:26:08.583Z,590.00
2023-04-23T09:27:08.657Z,587.00
2023-04-23T09:28:08.701Z,588.00
2023-04-23T09:29:08.748Z,587.00
2023-04-23T09:30:08.759Z,586.00
2023-04-23T09:31:08.790Z,586.00
2023-04-23T09:32:08.901Z,584.00
2023-04-23T09:33:08.950Z,586.00
2023-04-23T09:34:08.973Z,589.00
2023-04-23T09:35:09.018Z,589.00
2023-04-23T09:36:09.068Z,588.00
2023-04-23T09:37:09.161Z,588.00
2023-04-23T09:38:09.215Z,587.00
2023-04-23T09:39:09.253Z,585.00
2023-04-23T09:40:09.349Z,584.00
2023-04-23T09:41:09.393Z,585.00
2023-04-23T09:42:09.443Z,586.00
2023-04-23T09:43:09.592Z,587.00
2023-04-23T09:44:09.603Z,586.00
2023-04-23T09:45:09.610Z,588.00
2023-04-23T09:46:09.788Z,588.00
2023-04-23T09:47:09.818Z,587.00
2023-04-23T09:48:09.848Z,586.00
2023-04-23T09:49:09.879Z,585.00
2023-04-23T09:50:09.951Z,587.00
2023-04-23T09:51:10.002Z,586.00
2023-04-23T09:52:10.059Z,589.00
2023-04-23T09:53:10.093Z,592.00
2023-04-23T09:54:10.172Z,591.00
2023-04-23T09:55:10.237Z,588.00
2023-04-23T09:56:10.286Z,586.00
2023-04-23T09:57:10.352Z,588.00
2023-04-23T09:58:10.431Z,591.00
2023-04-23T09:59:10.480Z,593.00
2023-04-23T10:00:17.298Z,592.00
2023-04-23T10:01:11.564Z,591.00
2023-04-23T10:02:10.616Z,592.00
2023-04-23T10:03:10.630Z,591.00
2023-04-23T10:04:10.823Z,592.00
2023-04-23T10:05:23.029Z,594.00
2023-04-23T10:06:17.483Z,593.00
2023-04-23T10:07:18.154Z,590.00
2023-04-23T10:08:12.628Z,589.00
2023-04-23T10:09:10.468Z,589.00
2023-04-23T10:10:10.440Z,591.00
2023-04-23T10:11:20.468Z,593.00
2023-04-23T10:12:20.724Z,592.00
2023-04-23T10:13:11.410Z,592.00
2023-04-23T10:14:10.424Z,591.00
2023-04-23T10:15:10.427Z,590.00
2023-04-23T10:16:21.160Z,590.00
2023-04-23T10:17:11.443Z,589.00
2023-04-23T10:18:10.408Z,590.00
2023-04-23T10:19:10.402Z,592.00
2023-04-23T10:20:10.429Z,593.00
2023-04-23T10:21:10.380Z,594.00
2023-04-23T10:22:19.423Z,593.00
2023-04-23T10:23:11.345Z,596.00
2023-04-23T10:24:10.349Z,595.00
2023-04-23T10:25:10.374Z,594.00
2023-04-23T10:26:10.347Z,595.00
2023-04-23T10:27:24.881Z,594.00
2023-04-23T10:28:11.309Z,592.00
2023-04-23T10:29:10.309Z,591.00
2023-04-23T10:30:10.323Z,589.00
2023-04-23T10:31:10.334Z,590.00
2023-04-23T10:32:10.286Z,591.00
2023-04-23T10:33:18.866Z,591.00
2023-04-23T10:34:11.325Z,592.00
2023-04-23T10:35:10.284Z,593.00
2023-04-23T10:36:10.275Z,595.00
2023-04-23T10:37:10.250Z,594.00
2023-04-23T10:38:10.235Z,595.00
2023-04-23T10:39:10.232Z,596.00
2023-04-23T10:40:10.216Z,594.00
2023-04-23T10:41:10.256Z,592.00
2023-04-23T10:42:10.254Z,595.00
2023-04-23T10:43:10.307Z,597.00
2023-04-23T10:44:10.376Z,595.00
2023-04-23T10:45:22.568Z,593.00
2023-04-23T10:46:11.462Z,592.00
2023-04-23T10:47:10.437Z,595.00
2023-04-23T10:48:10.435Z,594.00
2023-04-23T10:49:10.441Z,591.00
2023-04-23T10:50:10.441Z,594.00
2023-04-23T10:51:44.780Z,594.00
2023-04-23T10:52:18.802Z,595.00
2023-04-23T10:53:11.394Z,595.00
2023-04-23T10:54:10.401Z,596.00
2023-04-23T10:55:10.360Z,595.00
2023-04-23T10:56:10.382Z,597.00
2023-04-23T10:57:10.387Z,598.00
2023-04-23T10:58:10.359Z,598.00
2023-04-23T10:59:10.339Z,595.00
2023-04-23T11:00:10.353Z,595.00
2023-04-23T11:01:10.348Z,595.00
2023-04-23T11:02:10.429Z,595.00
2023-04-23T11:03:10.382Z,594.00
2023-04-23T11:04:10.417Z,592.00
2023-04-23T11:05:10.280Z,593.00
2023-04-23T11:06:10.283Z,595.00
2023-04-23T11:07:10.292Z,595.00
2023-04-23T11:08:19.258Z,593.00
2023-04-23T11:09:11.302Z,594.00
2023-04-23T11:10:10.276Z,593.00
2023-04-23T11:11:10.269Z,592.00
2023-04-23T11:12:10.235Z,595.00
2023-04-23T11:13:10.246Z,595.00
2023-04-23T11:14:10.276Z,594.00
2023-04-23T11:15:10.240Z,593.00
2023-04-23T11:16:10.309Z,594.00
2023-04-23T11:17:10.217Z,594.00
2023-04-23T11:18:10.228Z,595.00
2023-04-23T11:19:10.240Z,595.00
2023-04-23T11:20:10.351Z,594.00
2023-04-23T11:21:10.329Z,594.00
2023-04-23T11:22:10.380Z,595.00
2023-04-23T11:23:10.490Z,594.00
2023-04-23T11:24:10.524Z,594.00
2023-04-23T11:25:10.531Z,593.00
2023-04-23T11:26:10.633Z,592.00
2023-04-23T11:27:10.643Z,591.00
2023-04-23T11:28:10.714Z,590.00
2023-04-23T11:29:10.748Z,591.00
2023-04-23T11:30:10.811Z,593.00
2023-04-23T11:31:10.839Z,590.00
2023-04-23T11:32:10.997Z,592.00
2023-04-23T11:33:10.953Z,593.00
2023-04-23T11:34:10.958Z,595.00
2023-04-23T11:35:13.567Z,598.00
2023-04-23T11:36:11.019Z,597.00
2023-04-23T11:37:11.033Z,598.00
2023-04-23T11:38:10.998Z,597.00
2023-04-23T11:39:11.025Z,598.00
2023-04-23T11:40:10.985Z,599.00
2023-04-23T11:41:10.996Z,595.00
2023-04-23T11:42:10.993Z,593.00
2023-04-23T11:43:10.968Z,593.00
2023-04-23T11:44:10.994Z,592.00
2023-04-23T11:45:10.950Z,591.00
2023-04-23T11:46:11.028Z,587.00
2023-04-23T11:47:10.956Z,586.00
2023-04-23T11:48:10.951Z,586.00
2023-04-23T11:49:10.931Z,586.00
2023-04-23T11:50:10.911Z,591.00
2023-04-23T11:51:10.905Z,590.00
2023-04-23T11:52:10.894Z,591.00
2023-04-23T11:53:10.905Z,592.00
2023-04-23T11:54:10.886Z,596.00
2023-04-23T11:55:10.885Z,595.00
2023-04-23T11:56:10.893Z,596.00
2023-04-23T11:57:10.859Z,597.00
2023-04-23T11:58:10.855Z,596.00
2023-04-23T11:59:10.897Z,596.00
2023-04-23T12:00:10.897Z,596.00
2023-04-23T12:01:10.862Z,597.00
2023-04-23T12:02:10.889Z,598.00
2023-04-23T12:03:10.980Z,599.00
2023-04-23T12:04:11.056Z,597.00
2023-04-23T12:05:10.836Z,597.00
2023-04-23T12:06:10.797Z,597.00
2023-04-23T12:07:25.280Z,597.00
2023-04-23T12:08:11.795Z,596.00
2023-04-23T12:09:10.789Z,598.00
2023-04-23T12:10:10.882Z,597.00
2023-04-23T12:11:10.775Z,595.00
2023-04-23T12:12:10.796Z,597.00
2023-04-23T12:13:10.771Z,596.00
2023-04-23T12:14:10.771Z,603.00
2023-04-23T12:15:10.748Z,603.00
2023-04-23T12:16:11.301Z,603.00
2023-04-23T12:17:10.740Z,602.00
2023-04-23T12:18:10.783Z,602.00
2023-04-23T12:19:10.863Z,604.00
2023-04-23T12:20:10.890Z,604.00
2023-04-23T12:21:10.929Z,602.00
2023-04-23T12:22:10.958Z,601.00
2023-04-23T12:23:10.954Z,600.00
2023-04-23T12:24:11.032Z,600.00
2023-04-23T12:25:11.066Z,600.00
2023-04-23T12:26:11.107Z,600.00
2023-04-23T12:27:11.147Z,600.00
2023-04-23T12:28:11.195Z,598.00